Marlinton, West Virginia
Current Conditions -  °F | °C
As of 6:55 PM on Sunday 21 Dec 2014 (Local Time) from KHSP Reporting Station
Clear Clear  
Wind Chill: 26°   Ceiling: Unl
Heat Index: 32°   Visibility: 10mi
Dew Point: 27°   Wind: 6mph
Humidity: 83%   Direction: 160°SSE
Pressure: 30.11"   Gusts: NA
Location:  38.22°N, 80.09°W
Report Text: KHSP 212355Z AUTO 16005KT 10SM CLR 00/M03 A3011 RMK AO2 T10021028 10030 21002
Loading
Personal Weather Stations






























Interactive Weather Map New forecast layout! Learn more

10-Day Weather Forecast

Advertisements
Track Severe Weather on mobile